sensor_id;sensor_type;location;lat;lon;timestamp;temperature;humidity
13436;DHT22;6790;49.520;8.504;2022-12-10T00:01:50;1.50;99.90
13436;DHT22;6790;49.520;8.504;2022-12-10T00:04:17;1.50;99.90
13436;DHT22;6790;49.520;8.504;2022-12-10T00:06:44;1.50;99.90
13436;DHT22;6790;49.520;8.504;2022-12-10T00:09:14;1.50;99.90
13436;DHT22;6790;49.520;8.504;2022-12-10T00:11:42;1.50;99.90
13436;DHT22;6790;49.520;8.504;2022-12-10T00:14:08;1.50;99.90
13436;DHT22;6790;49.520;8.504;2022-12-10T00:16:35;1.50;99.90
13436;DHT22;6790;49.520;8.504;2022-12-10T00:19:01;1.50;99.90
13436;DHT22;6790;49.520;8.504;2022-12-10T00:21:30;1.50;99.90
13436;DHT22;6790;49.520;8.504;2022-12-10T00:23:57;1.50;99.90
13436;DHT22;6790;49.520;8.504;2022-12-10T00:26:26;1.40;99.90
13436;DHT22;6790;49.520;8.504;2022-12-10T00:28:53;1.50;99.90
13436;DHT22;6790;49.520;8.504;2022-12-10T00:31:23;1.40;99.90
13436;DHT22;6790;49.520;8.504;2022-12-10T00:33:52;1.40;99.90
13436;DHT22;6790;49.520;8.504;2022-12-10T00:36:22;1.40;99.90
13436;DHT22;6790;49.520;8.504;2022-12-10T00:38:50;1.40;99.90
13436;DHT22;6790;49.520;8.504;2022-12-10T00:41:16;1.40;99.90
13436;DHT22;6790;49.520;8.504;2022-12-10T00:43:42;1.40;99.90
13436;DHT22;6790;49.520;8.504;2022-12-10T00:46:09;1.40;99.90
13436;DHT22;6790;49.520;8.504;2022-12-10T00:48:36;1.40;99.90
13436;DHT22;6790;49.520;8.504;2022-12-10T00:51:07;1.40;99.90
13436;DHT22;6790;49.520;8.504;2022-12-10T00:53:37;1.40;99.90
13436;DHT22;6790;49.520;8.504;2022-12-10T00:56:04;1.40;99.90
13436;DHT22;6790;49.520;8.504;2022-12-10T00:58:32;1.30;99.90
13436;DHT22;6790;49.520;8.504;2022-12-10T01:01:17;1.30;99.90
13436;DHT22;6790;49.520;8.504;2022-12-10T01:04:03;1.30;99.90
13436;DHT22;6790;49.520;8.504;2022-12-10T01:06:35;1.30;99.90
13436;DHT22;6790;49.520;8.504;2022-12-10T01:09:05;1.30;99.90
13436;DHT22;6790;49.520;8.504;2022-12-10T01:11:34;1.30;99.90
13436;DHT22;6790;49.520;8.504;2022-12-10T01:14:03;1.30;99.90
13436;DHT22;6790;49.520;8.504;2022-12-10T01:16:29;1.30;99.90
13436;DHT22;6790;49.520;8.504;2022-12-10T01:18:56;1.30;99.90
13436;DHT22;6790;49.520;8.504;2022-12-10T01:21:24;1.30;99.90
13436;DHT22;6790;49.520;8.504;2022-12-10T01:23:51;1.20;99.90
13436;DHT22;6790;49.520;8.504;2022-12-10T01:26:20;1.30;99.90
13436;DHT22;6790;49.520;8.504;2022-12-10T01:28:48;1.20;99.90
13436;DHT22;6790;49.520;8.504;2022-12-10T01:31:23;1.20;99.90
13436;DHT22;6790;49.520;8.504;2022-12-10T01:33:50;1.20;99.90
13436;DHT22;6790;49.520;8.504;2022-12-10T01:36:19;1.20;99.90
13436;DHT22;6790;49.520;8.504;2022-12-10T01:38:46;1.20;99.90
13436;DHT22;6790;49.520;8.504;2022-12-10T01:41:22;1.20;99.90
13436;DHT22;6790;49.520;8.504;2022-12-10T01:44:00;1.20;99.90
13436;DHT22;6790;49.520;8.504;2022-12-10T01:46:30;1.20;99.90
13436;DHT22;6790;49.520;8.504;2022-12-10T01:49:03;1.20;99.90
13436;DHT22;6790;49.520;8.504;2022-12-10T01:51:34;1.20;99.90
13436;DHT22;6790;49.520;8.504;2022-12-10T01:54:02;1.20;99.90
13436;DHT22;6790;49.520;8.504;2022-12-10T01:56:31;1.20;99.90
13436;DHT22;6790;49.520;8.504;2022-12-10T01:59:00;1.20;99.90
13436;DHT22;6790;49.520;8.504;2022-12-10T02:01:52;1.20;99.90
13436;DHT22;6790;49.520;8.504;2022-12-10T02:04:38;1.20;99.90
13436;DHT22;6790;49.520;8.504;2022-12-10T02:16:35;1.20;99.90
13436;DHT22;6790;49.520;8.504;2022-12-10T02:19:26;1.20;99.90
13436;DHT22;6790;49.520;8.504;2022-12-10T02:21:58;1.20;99.90
13436;DHT22;6790;49.520;8.504;2022-12-10T02:24:29;1.20;99.90
13436;DHT22;6790;49.520;8.504;2022-12-10T02:27:03;1.20;99.90
13436;DHT22;6790;49.520;8.504;2022-12-10T02:29:32;1.20;99.90
13436;DHT22;6790;49.520;8.504;2022-12-10T02:32:09;1.20;99.90
13436;DHT22;6790;49.520;8.504;2022-12-10T02:34:40;1.20;99.90
13436;DHT22;6790;49.520;8.504;2022-12-10T02:37:12;1.20;99.90
13436;DHT22;6790;49.520;8.504;2022-12-10T02:39:44;1.20;99.90
13436;DHT22;6790;49.520;8.504;2022-12-10T02:42:13;1.10;99.90
13436;DHT22;6790;49.520;8.504;2022-12-10T02:44:42;1.20;99.90
13436;DHT22;6790;49.520;8.504;2022-12-10T02:47:11;1.20;99.90
13436;DHT22;6790;49.520;8.504;2022-12-10T02:49:39;1.10;99.90
13436;DHT22;6790;49.520;8.504;2022-12-10T02:52:08;1.10;99.90
13436;DHT22;6790;49.520;8.504;2022-12-10T02:54:41;1.10;99.90
13436;DHT22;6790;49.520;8.504;2022-12-10T02:57:28;1.10;99.90
13436;DHT22;6790;49.520;8.504;2022-12-10T03:00:18;1.10;99.90
13436;DHT22;6790;49.520;8.504;2022-12-10T03:06:09;1.10;99.90
13436;DHT22;6790;49.520;8.504;2022-12-10T03:08:52;1.10;99.90
13436;DHT22;6790;49.520;8.504;2022-12-10T03:11:24;1.10;99.90
13436;DHT22;6790;49.520;8.504;2022-12-10T03:14:02;1.10;99.90
13436;DHT22;6790;49.520;8.504;2022-12-10T03:16:37;1.10;99.90
13436;DHT22;6790;49.520;8.504;2022-12-10T03:19:11;1.00;99.90
13436;DHT22;6790;49.520;8.504;2022-12-10T03:21:39;1.00;99.90
13436;DHT22;6790;49.520;8.504;2022-12-10T03:24:08;1.00;99.90
13436;DHT22;6790;49.520;8.504;2022-12-10T03:26:36;1.00;99.90
13436;DHT22;6790;49.520;8.504;2022-12-10T03:29:06;1.00;99.90
13436;DHT22;6790;49.520;8.504;2022-12-10T03:31:34;1.00;99.90
13436;DHT22;6790;49.520;8.504;2022-12-10T03:34:02;1.00;99.90
13436;DHT22;6790;49.520;8.504;2022-12-10T03:36:29;1.00;99.90
13436;DHT22;6790;49.520;8.504;2022-12-10T03:38:56;1.00;99.90
13436;DHT22;6790;49.520;8.504;2022-12-10T03:41:22;1.00;99.90
13436;DHT22;6790;49.520;8.504;2022-12-10T03:43:53;1.00;99.90
13436;DHT22;6790;49.520;8.504;2022-12-10T03:46:24;1.00;99.90
13436;DHT22;6790;49.520;8.504;2022-12-10T03:48:51;0.90;99.90
13436;DHT22;6790;49.520;8.504;2022-12-10T03:51:18;0.90;99.90
13436;DHT22;6790;49.520;8.504;2022-12-10T03:53:44;1.00;99.90
13436;DHT22;6790;49.520;8.504;2022-12-10T03:56:09;0.90;99.90
13436;DHT22;6790;49.520;8.504;2022-12-10T03:58:35;0.90;99.90
13436;DHT22;6790;49.520;8.504;2022-12-10T04:01:02;1.00;99.90
13436;DHT22;6790;49.520;8.504;2022-12-10T04:03:28;0.90;99.90
13436;DHT22;6790;49.520;8.504;2022-12-10T04:05:54;0.90;99.90
13436;DHT22;6790;49.520;8.504;2022-12-10T04:08:26;0.90;99.90
13436;DHT22;6790;49.520;8.504;2022-12-10T04:10:52;0.90;99.90
13436;DHT22;6790;49.520;8.504;2022-12-10T04:13:17;0.90;99.90
13436;DHT22;6790;49.520;8.504;2022-12-10T04:16:02;0.90;99.90
13436;DHT22;6790;49.520;8.504;2022-12-10T04:18:46;0.90;99.90
13436;DHT22;6790;49.520;8.504;2022-12-10T04:21:11;0.90;99.90
13436;DHT22;6790;49.520;8.504;2022-12-10T04:23:55;0.90;99.90
13436;DHT22;6790;49.520;8.504;2022-12-10T04:26:40;0.90;99.90
13436;DHT22;6790;49.520;8.504;2022-12-10T04:29:22;0.80;99.90
13436;DHT22;6790;49.520;8.504;2022-12-10T04:31:48;0.90;99.90
13436;DHT22;6790;49.520;8.504;2022-12-10T04:34:14;0.80;99.90
13436;DHT22;6790;49.520;8.504;2022-12-10T04:36:40;0.80;99.90
13436;DHT22;6790;49.520;8.504;2022-12-10T04:39:05;0.90;99.90
13436;DHT22;6790;49.520;8.504;2022-12-10T04:41:31;0.90;99.90
13436;DHT22;6790;49.520;8.504;2022-12-10T04:43:57;0.90;99.90
13436;DHT22;6790;49.520;8.504;2022-12-10T04:46:22;0.90;99.90
13436;DHT22;6790;49.520;8.504;2022-12-10T04:48:48;0.90;99.90
13436;DHT22;6790;49.520;8.504;2022-12-10T04:51:14;0.90;99.90
13436;DHT22;6790;49.520;8.504;2022-12-10T04:53:39;0.90;99.90
13436;DHT22;6790;49.520;8.504;2022-12-10T04:56:06;0.90;99.90
13436;DHT22;6790;49.520;8.504;2022-12-10T04:58:32;0.90;99.90
13436;DHT22;6790;49.520;8.504;2022-12-10T05:01:05;0.90;99.90
13436;DHT22;6790;49.520;8.504;2022-12-10T05:03:33;0.80;99.90
13436;DHT22;6790;49.520;8.504;2022-12-10T05:06:03;0.80;99.90
13436;DHT22;6790;49.520;8.504;2022-12-10T05:08:31;0.80;99.90
13436;DHT22;6790;49.520;8.504;2022-12-10T05:11:05;0.80;99.90
13436;DHT22;6790;49.520;8.504;2022-12-10T05:13:38;0.80;99.90
13436;DHT22;6790;49.520;8.504;2022-12-10T05:16:06;0.80;99.90
13436;DHT22;6790;49.520;8.504;2022-12-10T05:18:34;0.80;99.90
13436;DHT22;6790;49.520;8.504;2022-12-10T05:21:01;0.80;99.90
13436;DHT22;6790;49.520;8.504;2022-12-10T05:23:29;0.80;99.90
13436;DHT22;6790;49.520;8.504;2022-12-10T05:28:23;0.80;99.90
13436;DHT22;6790;49.520;8.504;2022-12-10T05:30:49;0.80;99.90
13436;DHT22;6790;49.520;8.504;2022-12-10T05:33:15;0.80;99.90
13436;DHT22;6790;49.520;8.504;2022-12-10T05:35:41;0.80;99.90
13436;DHT22;6790;49.520;8.504;2022-12-10T05:38:06;0.80;99.90
13436;DHT22;6790;49.520;8.504;2022-12-10T05:40:36;0.80;99.90
13436;DHT22;6790;49.520;8.504;2022-12-10T05:43:02;0.80;99.90
13436;DHT22;6790;49.520;8.504;2022-12-10T05:45:28;0.80;99.90
13436;DHT22;6790;49.520;8.504;2022-12-10T05:47:53;0.80;99.90
13436;DHT22;6790;49.520;8.504;2022-12-10T05:50:19;0.80;99.90
13436;DHT22;6790;49.520;8.504;2022-12-10T05:52:45;0.70;99.90
13436;DHT22;6790;49.520;8.504;2022-12-10T05:55:10;0.70;99.90
13436;DHT22;6790;49.520;8.504;2022-12-10T05:57:37;0.70;99.90
13436;DHT22;6790;49.520;8.504;2022-12-10T06:00:04;0.70;99.90
13436;DHT22;6790;49.520;8.504;2022-12-10T06:02:33;0.70;99.90
13436;DHT22;6790;49.520;8.504;2022-12-10T06:04:59;0.70;99.90
13436;DHT22;6790;49.520;8.504;2022-12-10T06:07:25;0.80;99.90
13436;DHT22;6790;49.520;8.504;2022-12-10T06:09:51;0.70;99.90
13436;DHT22;6790;49.520;8.504;2022-12-10T06:12:16;0.70;99.90
13436;DHT22;6790;49.520;8.504;2022-12-10T06:14:42;0.70;99.90
13436;DHT22;6790;49.520;8.504;2022-12-10T06:17:08;0.70;99.90
13436;DHT22;6790;49.520;8.504;2022-12-10T06:19:34;0.70;99.90
13436;DHT22;6790;49.520;8.504;2022-12-10T06:22:00;0.70;99.90
13436;DHT22;6790;49.520;8.504;2022-12-10T06:24:26;0.70;99.90
13436;DHT22;6790;49.520;8.504;2022-12-10T06:26:52;0.70;99.90
13436;DHT22;6790;49.520;8.504;2022-12-10T06:29:17;0.70;99.90
13436;DHT22;6790;49.520;8.504;2022-12-10T06:31:43;0.70;99.90
13436;DHT22;6790;49.520;8.504;2022-12-10T06:34:09;0.70;99.90
13436;DHT22;6790;49.520;8.504;2022-12-10T06:36:35;0.70;99.90
13436;DHT22;6790;49.520;8.504;2022-12-10T06:39:01;0.60;99.90
13436;DHT22;6790;49.520;8.504;2022-12-10T06:41:26;0.60;99.90
13436;DHT22;6790;49.520;8.504;2022-12-10T06:43:52;0.60;99.90
13436;DHT22;6790;49.520;8.504;2022-12-10T06:46:20;0.60;99.90
13436;DHT22;6790;49.520;8.504;2022-12-10T06:48:46;0.60;99.90
13436;DHT22;6790;49.520;8.504;2022-12-10T06:51:13;0.60;99.90
13436;DHT22;6790;49.520;8.504;2022-12-10T06:53:39;0.60;99.90
13436;DHT22;6790;49.520;8.504;2022-12-10T06:56:07;0.60;99.90
13436;DHT22;6790;49.520;8.504;2022-12-10T06:58:35;0.60;99.90
13436;DHT22;6790;49.520;8.504;2022-12-10T07:01:06;0.60;99.90
13436;DHT22;6790;49.520;8.504;2022-12-10T07:03:32;0.60;99.90
13436;DHT22;6790;49.520;8.504;2022-12-10T07:05:59;0.60;99.90
13436;DHT22;6790;49.520;8.504;2022-12-10T07:08:25;0.60;99.90
13436;DHT22;6790;49.520;8.504;2022-12-10T07:10:52;0.60;99.90
13436;DHT22;6790;49.520;8.504;2022-12-10T07:13:17;0.60;99.90
13436;DHT22;6790;49.520;8.504;2022-12-10T07:15:43;0.60;99.90
13436;DHT22;6790;49.520;8.504;2022-12-10T07:18:09;0.60;99.90
13436;DHT22;6790;49.520;8.504;2022-12-10T07:20:34;0.60;99.90
13436;DHT22;6790;49.520;8.504;2022-12-10T07:23:00;0.60;99.90
13436;DHT22;6790;49.520;8.504;2022-12-10T07:25:26;0.60;99.90
13436;DHT22;6790;49.520;8.504;2022-12-10T07:27:51;0.60;99.90
13436;DHT22;6790;49.520;8.504;2022-12-10T07:30:17;0.60;99.90
13436;DHT22;6790;49.520;8.504;2022-12-10T07:32:43;0.70;99.90
13436;DHT22;6790;49.520;8.504;2022-12-10T07:35:08;0.70;99.90
13436;DHT22;6790;49.520;8.504;2022-12-10T07:37:34;0.70;99.90
13436;DHT22;6790;49.520;8.504;2022-12-10T07:40:00;0.70;99.90
13436;DHT22;6790;49.520;8.504;2022-12-10T07:42:25;0.70;99.90
13436;DHT22;6790;49.520;8.504;2022-12-10T07:44:51;0.70;99.90
13436;DHT22;6790;49.520;8.504;2022-12-10T07:47:17;0.70;99.90
13436;DHT22;6790;49.520;8.504;2022-12-10T07:49:43;0.70;99.90
13436;DHT22;6790;49.520;8.504;2022-12-10T07:52:09;0.70;99.90
13436;DHT22;6790;49.520;8.504;2022-12-10T07:54:34;0.70;99.90
13436;DHT22;6790;49.520;8.504;2022-12-10T07:57:00;0.70;99.90
13436;DHT22;6790;49.520;8.504;2022-12-10T07:59:26;0.70;99.90
13436;DHT22;6790;49.520;8.504;2022-12-10T08:01:52;0.80;99.90
13436;DHT22;6790;49.520;8.504;2022-12-10T08:04:18;0.80;99.90
13436;DHT22;6790;49.520;8.504;2022-12-10T08:06:43;0.80;99.90
13436;DHT22;6790;49.520;8.504;2022-12-10T08:09:10;0.80;99.90
13436;DHT22;6790;49.520;8.504;2022-12-10T08:11:36;0.90;99.90
13436;DHT22;6790;49.520;8.504;2022-12-10T08:14:01;0.90;99.90
13436;DHT22;6790;49.520;8.504;2022-12-10T08:16:29;0.90;99.90
13436;DHT22;6790;49.520;8.504;2022-12-10T08:18:58;0.90;99.90
13436;DHT22;6790;49.520;8.504;2022-12-10T08:21:27;0.90;99.90
13436;DHT22;6790;49.520;8.504;2022-12-10T08:23:54;1.00;99.90
13436;DHT22;6790;49.520;8.504;2022-12-10T08:26:25;1.00;99.90
13436;DHT22;6790;49.520;8.504;2022-12-10T08:28:56;1.00;99.90
13436;DHT22;6790;49.520;8.504;2022-12-10T08:31:23;1.00;99.90
13436;DHT22;6790;49.520;8.504;2022-12-10T08:33:50;1.00;99.90
13436;DHT22;6790;49.520;8.504;2022-12-10T08:36:17;1.10;99.90
13436;DHT22;6790;49.520;8.504;2022-12-10T08:38:44;1.10;99.90
13436;DHT22;6790;49.520;8.504;2022-12-10T08:41:13;1.10;99.90
13436;DHT22;6790;49.520;8.504;2022-12-10T08:43:43;1.20;99.90
13436;DHT22;6790;49.520;8.504;2022-12-10T08:46:11;1.30;99.90
13436;DHT22;6790;49.520;8.504;2022-12-10T08:48:38;1.30;99.90
13436;DHT22;6790;49.520;8.504;2022-12-10T08:51:05;1.30;99.90
13436;DHT22;6790;49.520;8.504;2022-12-10T08:53:33;1.30;99.90
13436;DHT22;6790;49.520;8.504;2022-12-10T08:55:59;1.30;99.90
13436;DHT22;6790;49.520;8.504;2022-12-10T08:58:25;1.30;99.90
13436;DHT22;6790;49.520;8.504;2022-12-10T09:00:51;1.30;99.90
13436;DHT22;6790;49.520;8.504;2022-12-10T09:03:17;1.40;99.90
13436;DHT22;6790;49.520;8.504;2022-12-10T09:05:43;1.40;99.90
13436;DHT22;6790;49.520;8.504;2022-12-10T09:08:09;1.50;99.90
13436;DHT22;6790;49.520;8.504;2022-12-10T09:10:36;1.50;99.90
13436;DHT22;6790;49.520;8.504;2022-12-10T09:13:02;1.60;99.90
13436;DHT22;6790;49.520;8.504;2022-12-10T09:15:28;1.70;99.90
13436;DHT22;6790;49.520;8.504;2022-12-10T09:17:54;1.70;99.90
13436;DHT22;6790;49.520;8.504;2022-12-10T09:20:19;1.80;99.90
13436;DHT22;6790;49.520;8.504;2022-12-10T09:22:45;1.90;99.90
13436;DHT22;6790;49.520;8.504;2022-12-10T09:25:11;2.00;99.90
13436;DHT22;6790;49.520;8.504;2022-12-10T09:27:39;1.90;99.90
13436;DHT22;6790;49.520;8.504;2022-12-10T09:30:05;1.80;99.90
13436;DHT22;6790;49.520;8.504;2022-12-10T09:32:31;1.70;99.90
13436;DHT22;6790;49.520;8.504;2022-12-10T09:34:57;1.70;99.90
13436;DHT22;6790;49.520;8.504;2022-12-10T09:37:23;1.70;99.90
13436;DHT22;6790;49.520;8.504;2022-12-10T09:39:48;1.70;99.90
13436;DHT22;6790;49.520;8.504;2022-12-10T09:48:14;1.80;99.90
13436;DHT22;6790;49.520;8.504;2022-12-10T09:53:24;1.80;99.90
13436;DHT22;6790;49.520;8.504;2022-12-10T09:55:50;1.80;99.90
13436;DHT22;6790;49.520;8.504;2022-12-10T09:58:19;1.90;99.90
13436;DHT22;6790;49.520;8.504;2022-12-10T10:01:02;1.80;99.90
13436;DHT22;6790;49.520;8.504;2022-12-10T10:03:38;1.90;99.90
13436;DHT22;6790;49.520;8.504;2022-12-10T10:06:06;1.90;99.90
13436;DHT22;6790;49.520;8.504;2022-12-10T10:08:41;2.00;99.90
13436;DHT22;6790;49.520;8.504;2022-12-10T10:11:33;2.10;99.90
13436;DHT22;6790;49.520;8.504;2022-12-10T10:14:33;2.20;99.90
13436;DHT22;6790;49.520;8.504;2022-12-10T10:17:00;2.30;99.90
13436;DHT22;6790;49.520;8.504;2022-12-10T10:19:34;2.30;99.90
13436;DHT22;6790;49.520;8.504;2022-12-10T10:22:01;2.30;99.90
13436;DHT22;6790;49.520;8.504;2022-12-10T10:24:39;2.40;99.90
13436;DHT22;6790;49.520;8.504;2022-12-10T10:27:18;2.60;99.90
13436;DHT22;6790;49.520;8.504;2022-12-10T10:29:49;2.80;99.90
13436;DHT22;6790;49.520;8.504;2022-12-10T10:32:25;2.90;99.90
13436;DHT22;6790;49.520;8.504;2022-12-10T10:34:55;3.00;99.90
13436;DHT22;6790;49.520;8.504;2022-12-10T10:37:28;3.10;99.90
13436;DHT22;6790;49.520;8.504;2022-12-10T10:39:56;3.30;99.90
13436;DHT22;6790;49.520;8.504;2022-12-10T10:42:36;3.30;99.90
13436;DHT22;6790;49.520;8.504;2022-12-10T10:48:17;3.30;99.90
13436;DHT22;6790;49.520;8.504;2022-12-10T10:53:45;2.80;99.90
13436;DHT22;6790;49.520;8.504;2022-12-10T10:56:14;2.70;99.90
13436;DHT22;6790;49.520;8.504;2022-12-10T11:01:50;2.50;99.90
13436;DHT22;6790;49.520;8.504;2022-12-10T11:07:32;2.70;99.90
13436;DHT22;6790;49.520;8.504;2022-12-10T11:10:00;2.90;99.90
13436;DHT22;6790;49.520;8.504;2022-12-10T11:12:31;2.80;99.90
13436;DHT22;6790;49.520;8.504;2022-12-10T11:15:00;2.70;99.90
13436;DHT22;6790;49.520;8.504;2022-12-10T11:17:27;2.80;99.90
13436;DHT22;6790;49.520;8.504;2022-12-10T11:22:33;3.10;99.90
13436;DHT22;6790;49.520;8.504;2022-12-10T11:25:00;3.30;99.90
13436;DHT22;6790;49.520;8.504;2022-12-10T11:30:20;3.30;99.90
13436;DHT22;6790;49.520;8.504;2022-12-10T11:35:40;3.20;99.90
13436;DHT22;6790;49.520;8.504;2022-12-10T11:41:02;3.10;99.90
13436;DHT22;6790;49.520;8.504;2022-12-10T11:43:42;3.40;99.90
13436;DHT22;6790;49.520;8.504;2022-12-10T11:46:31;3.60;99.90
13436;DHT22;6790;49.520;8.504;2022-12-10T11:49:19;3.50;99.90
13436;DHT22;6790;49.520;8.504;2022-12-10T12:00:25;3.50;99.90
13436;DHT22;6790;49.520;8.504;2022-12-10T12:03:11;3.70;99.90
13436;DHT22;6790;49.520;8.504;2022-12-10T12:06:26;3.70;99.90
13436;DHT22;6790;49.520;8.504;2022-12-10T12:09:16;3.90;99.90
13436;DHT22;6790;49.520;8.504;2022-12-10T12:14:43;3.80;99.90
13436;DHT22;6790;49.520;8.504;2022-12-10T12:17:26;3.80;99.90
13436;DHT22;6790;49.520;8.504;2022-12-10T12:19:56;3.80;99.90
13436;DHT22;6790;49.520;8.504;2022-12-10T12:22:35;3.90;99.90
13436;DHT22;6790;49.520;8.504;2022-12-10T12:25:20;4.00;99.90
13436;DHT22;6790;49.520;8.504;2022-12-10T12:28:04;3.90;99.90
13436;DHT22;6790;49.520;8.504;2022-12-10T12:30:37;4.00;99.90
13436;DHT22;6790;49.520;8.504;2022-12-10T12:33:15;4.30;99.90
13436;DHT22;6790;49.520;8.504;2022-12-10T12:35:58;4.40;99.90
13436;DHT22;6790;49.520;8.504;2022-12-10T12:43:32;4.00;99.90
13436;DHT22;6790;49.520;8.504;2022-12-10T12:46:12;3.90;99.90
13436;DHT22;6790;49.520;8.504;2022-12-10T12:51:54;3.90;99.90
13436;DHT22;6790;49.520;8.504;2022-12-10T12:54:21;3.70;99.90
13436;DHT22;6790;49.520;8.504;2022-12-10T12:56:55;3.50;99.90
13436;DHT22;6790;49.520;8.504;2022-12-10T12:59:47;3.50;99.90
13436;DHT22;6790;49.520;8.504;2022-12-10T13:02:44;3.40;99.90
13436;DHT22;6790;49.520;8.504;2022-12-10T13:05:30;3.40;99.90
13436;DHT22;6790;49.520;8.504;2022-12-10T13:08:27;3.40;99.90
13436;DHT22;6790;49.520;8.504;2022-12-10T13:13:41;3.20;99.90
13436;DHT22;6790;49.520;8.504;2022-12-10T13:22:08;3.10;99.90
13436;DHT22;6790;49.520;8.504;2022-12-10T13:29:55;3.30;99.90
13436;DHT22;6790;49.520;8.504;2022-12-10T13:37:53;3.30;99.90
13436;DHT22;6790;49.520;8.504;2022-12-10T13:43:27;3.10;99.90
13436;DHT22;6790;49.520;8.504;2022-12-10T13:49:00;2.90;99.90
13436;DHT22;6790;49.520;8.504;2022-12-10T13:51:45;2.90;99.90
13436;DHT22;6790;49.520;8.504;2022-12-10T13:57:37;2.90;99.90
13436;DHT22;6790;49.520;8.504;2022-12-10T14:00:20;2.80;99.90
13436;DHT22;6790;49.520;8.504;2022-12-10T14:03:23;2.90;99.90
13436;DHT22;6790;49.520;8.504;2022-12-10T14:06:25;2.90;99.90
13436;DHT22;6790;49.520;8.504;2022-12-10T14:09:15;2.90;99.90
13436;DHT22;6790;49.520;8.504;2022-12-10T14:11:56;2.90;99.90
13436;DHT22;6790;49.520;8.504;2022-12-10T14:14:39;2.90;99.90
13436;DHT22;6790;49.520;8.504;2022-12-10T14:17:20;2.80;99.90
13436;DHT22;6790;49.520;8.504;2022-12-10T14:19:50;2.80;99.90
13436;DHT22;6790;49.520;8.504;2022-12-10T14:22:31;2.80;99.90
13436;DHT22;6790;49.520;8.504;2022-12-10T14:25:03;2.70;99.90
13436;DHT22;6790;49.520;8.504;2022-12-10T14:27:37;2.60;99.90
13436;DHT22;6790;49.520;8.504;2022-12-10T14:32:48;2.40;99.90
13436;DHT22;6790;49.520;8.504;2022-12-10T14:35:21;2.30;99.90
13436;DHT22;6790;49.520;8.504;2022-12-10T14:37:49;2.20;99.90
13436;DHT22;6790;49.520;8.504;2022-12-10T14:40:37;2.20;99.90
13436;DHT22;6790;49.520;8.504;2022-12-10T14:43:23;2.10;99.90
13436;DHT22;6790;49.520;8.504;2022-12-10T14:45:54;2.00;99.90
13436;DHT22;6790;49.520;8.504;2022-12-10T14:48:23;2.00;99.90
13436;DHT22;6790;49.520;8.504;2022-12-10T14:50:49;2.00;99.90
13436;DHT22;6790;49.520;8.504;2022-12-10T14:53:19;1.90;99.90
13436;DHT22;6790;49.520;8.504;2022-12-10T14:55:52;1.90;99.90
13436;DHT22;6790;49.520;8.504;2022-12-10T14:58:28;1.80;99.90
13436;DHT22;6790;49.520;8.504;2022-12-10T15:00:58;1.80;99.90
13436;DHT22;6790;49.520;8.504;2022-12-10T15:03:38;1.80;99.90
13436;DHT22;6790;49.520;8.504;2022-12-10T15:06:15;1.90;99.90
13436;DHT22;6790;49.520;8.504;2022-12-10T15:08:43;1.90;99.90
13436;DHT22;6790;49.520;8.504;2022-12-10T15:11:17;1.90;99.90
13436;DHT22;6790;49.520;8.504;2022-12-10T15:13:46;1.90;99.90
13436;DHT22;6790;49.520;8.504;2022-12-10T15:16:17;2.00;99.90
13436;DHT22;6790;49.520;8.504;2022-12-10T15:18:44;2.00;99.90
13436;DHT22;6790;49.520;8.504;2022-12-10T15:21:21;2.00;99.90
13436;DHT22;6790;49.520;8.504;2022-12-10T15:23:49;2.00;99.90
13436;DHT22;6790;49.520;8.504;2022-12-10T15:26:28;1.90;99.90
13436;DHT22;6790;49.520;8.504;2022-12-10T15:31:48;1.80;99.90
13436;DHT22;6790;49.520;8.504;2022-12-10T15:34:16;1.70;99.90
13436;DHT22;6790;49.520;8.504;2022-12-10T15:36:51;1.70;99.90
13436;DHT22;6790;49.520;8.504;2022-12-10T15:39:23;1.70;99.90
13436;DHT22;6790;49.520;8.504;2022-12-10T15:41:52;1.60;99.90
13436;DHT22;6790;49.520;8.504;2022-12-10T15:44:38;1.60;99.90
13436;DHT22;6790;49.520;8.504;2022-12-10T15:47:16;1.40;99.90
13436;DHT22;6790;49.520;8.504;2022-12-10T15:49:44;1.20;99.90
13436;DHT22;6790;49.520;8.504;2022-12-10T15:52:26;1.10;99.90
13436;DHT22;6790;49.520;8.504;2022-12-10T15:54:55;0.90;99.90
13436;DHT22;6790;49.520;8.504;2022-12-10T15:57:36;0.80;99.90
13436;DHT22;6790;49.520;8.504;2022-12-10T16:00:06;0.70;99.90
13436;DHT22;6790;49.520;8.504;2022-12-10T16:02:44;0.60;99.90
13436;DHT22;6790;49.520;8.504;2022-12-10T16:05:19;0.60;99.90
13436;DHT22;6790;49.520;8.504;2022-12-10T16:07:51;0.60;99.90
13436;DHT22;6790;49.520;8.504;2022-12-10T16:10:20;0.50;99.90
13436;DHT22;6790;49.520;8.504;2022-12-10T16:12:53;0.50;99.90
13436;DHT22;6790;49.520;8.504;2022-12-10T16:15:31;0.50;99.90
13436;DHT22;6790;49.520;8.504;2022-12-10T16:18:05;0.50;99.90
13436;DHT22;6790;49.520;8.504;2022-12-10T16:20:32;0.60;99.90
13436;DHT22;6790;49.520;8.504;2022-12-10T16:22:58;0.50;99.90
13436;DHT22;6790;49.520;8.504;2022-12-10T16:25:29;0.40;99.90
13436;DHT22;6790;49.520;8.504;2022-12-10T16:27:56;0.30;99.90
13436;DHT22;6790;49.520;8.504;2022-12-10T16:30:50;0.30;99.90
13436;DHT22;6790;49.520;8.504;2022-12-10T16:33:19;0.30;99.90
13436;DHT22;6790;49.520;8.504;2022-12-10T16:35:47;0.30;99.90
13436;DHT22;6790;49.520;8.504;2022-12-10T16:38:13;0.30;99.90
13436;DHT22;6790;49.520;8.504;2022-12-10T16:40:40;0.20;99.90
13436;DHT22;6790;49.520;8.504;2022-12-10T16:43:30;0.20;99.90
13436;DHT22;6790;49.520;8.504;2022-12-10T16:45:58;0.10;99.90
13436;DHT22;6790;49.520;8.504;2022-12-10T16:48:24;0.10;99.90
13436;DHT22;6790;49.520;8.504;2022-12-10T16:50:51;0.00;99.90
13436;DHT22;6790;49.520;8.504;2022-12-10T16:53:22;0.00;99.90
13436;DHT22;6790;49.520;8.504;2022-12-10T16:55:50;-0.10;99.90
13436;DHT22;6790;49.520;8.504;2022-12-10T16:58:16;-0.10;99.90
13436;DHT22;6790;49.520;8.504;2022-12-10T17:00:47;-0.10;99.90
13436;DHT22;6790;49.520;8.504;2022-12-10T17:03:16;-0.10;99.90
13436;DHT22;6790;49.520;8.504;2022-12-10T17:05:55;-0.10;99.90
13436;DHT22;6790;49.520;8.504;2022-12-10T17:08:23;-0.20;99.90
13436;DHT22;6790;49.520;8.504;2022-12-10T17:10:50;-0.20;99.90
13436;DHT22;6790;49.520;8.504;2022-12-10T17:13:36;-0.10;99.90
13436;DHT22;6790;49.520;8.504;2022-12-10T17:16:03;0.00;99.90
13436;DHT22;6790;49.520;8.504;2022-12-10T17:18:30;0.10;99.90
13436;DHT22;6790;49.520;8.504;2022-12-10T17:20:57;0.20;99.90
13436;DHT22;6790;49.520;8.504;2022-12-10T17:23:23;0.20;99.90
13436;DHT22;6790;49.520;8.504;2022-12-10T17:25:49;0.40;99.90
13436;DHT22;6790;49.520;8.504;2022-12-10T17:28:18;0.30;99.90
13436;DHT22;6790;49.520;8.504;2022-12-10T17:30:45;0.40;99.90
13436;DHT22;6790;49.520;8.504;2022-12-10T17:33:21;0.40;99.90
13436;DHT22;6790;49.520;8.504;2022-12-10T17:35:48;0.40;99.90
13436;DHT22;6790;49.520;8.504;2022-12-10T17:38:21;0.40;99.90
13436;DHT22;6790;49.520;8.504;2022-12-10T17:40:48;0.40;99.90
13436;DHT22;6790;49.520;8.504;2022-12-10T17:43:14;0.30;99.90
13436;DHT22;6790;49.520;8.504;2022-12-10T17:45:40;0.30;99.90
13436;DHT22;6790;49.520;8.504;2022-12-10T17:48:12;0.30;99.90
13436;DHT22;6790;49.520;8.504;2022-12-10T17:50:41;0.20;99.90
13436;DHT22;6790;49.520;8.504;2022-12-10T17:53:09;0.20;99.90
13436;DHT22;6790;49.520;8.504;2022-12-10T17:55:40;0.10;99.90
13436;DHT22;6790;49.520;8.504;2022-12-10T17:58:11;0.00;99.90
13436;DHT22;6790;49.520;8.504;2022-12-10T18:00:38;-0.10;99.90
13436;DHT22;6790;49.520;8.504;2022-12-10T18:03:04;-0.20;99.90
13436;DHT22;6790;49.520;8.504;2022-12-10T18:05:30;-0.20;99.90
13436;DHT22;6790;49.520;8.504;2022-12-10T18:07:56;-0.30;99.90